createdAt,value
2023-02-03T12:03:57.287Z,5.30
2023-02-03T12:06:33.056Z,5.20
2023-02-03T12:09:12.604Z,5.20
2023-02-03T12:11:42.360Z,5.20
2023-02-03T12:14:35.290Z,5.20
2023-02-03T12:17:01.970Z,5.20
2023-02-03T12:19:59.125Z,5.20
2023-02-03T12:22:44.913Z,5.20
2023-02-03T12:25:44.256Z,5.30
2023-02-03T12:28:42.065Z,5.30
2023-02-03T12:31:29.396Z,5.30
2023-02-03T12:34:28.258Z,5.30
2023-02-03T12:36:59.701Z,5.20
2023-02-03T12:39:26.365Z,5.30
2023-02-03T12:42:04.272Z,5.30
2023-02-03T12:45:13.363Z,5.30
2023-02-03T12:47:52.329Z,5.30
2023-02-03T12:50:24.115Z,5.30
2023-02-03T12:52:56.330Z,5.30
2023-02-03T12:55:37.919Z,5.40
2023-02-03T12:58:12.112Z,5.40
2023-02-03T13:00:44.412Z,5.40
2023-02-03T13:03:23.309Z,5.40
2023-02-03T13:05:55.654Z,5.40
2023-02-03T13:08:37.416Z,5.40
2023-02-03T13:11:28.560Z,5.40
2023-02-03T13:13:59.047Z,5.40
2023-02-03T13:16:35.485Z,5.40
2023-02-03T13:19:14.018Z,5.50
2023-02-03T13:21:41.936Z,5.50
2023-02-03T13:24:11.447Z,5.40
2023-02-03T13:26:54.211Z,5.40
2023-02-03T13:29:39.433Z,5.40
2023-02-03T13:32:15.215Z,5.40
2023-02-03T13:35:33.248Z,5.40
2023-02-03T13:38:21.395Z,5.40
2023-02-03T13:41:18.740Z,5.40
2023-02-03T13:43:49.242Z,5.40
2023-02-03T13:46:26.847Z,5.40
2023-02-03T13:48:55.249Z,5.40
2023-02-03T13:51:29.111Z,5.30
2023-02-03T13:54:08.429Z,5.30
2023-02-03T13:56:35.254Z,5.30
2023-02-03T13:59:07.307Z,5.30
2023-02-03T14:01:38.678Z,5.30
2023-02-03T14:04:08.551Z,5.30
2023-02-03T14:06:38.443Z,5.30
2023-02-03T14:09:31.583Z,5.30
2023-02-03T14:12:18.471Z,5.30
2023-02-03T14:14:58.457Z,5.30
2023-02-03T14:17:43.262Z,5.30
2023-02-03T14:20:24.927Z,5.30
2023-02-03T14:23:06.780Z,5.20
2023-02-03T14:25:43.646Z,5.20
2023-02-03T14:28:20.800Z,5.20
2023-02-03T14:31:06.527Z,5.20
2023-02-03T14:33:48.741Z,5.10
2023-02-03T14:36:38.676Z,5.10
2023-02-03T14:39:20.435Z,5.10
2023-02-03T14:41:52.729Z,5.20
2023-02-03T14:44:22.303Z,5.10
2023-02-03T14:46:54.874Z,5.10
2023-02-03T14:50:01.286Z,5.10
2023-02-03T14:52:48.227Z,5.10
2023-02-03T14:55:34.472Z,5.10
2023-02-03T14:58:04.833Z,5.10
2023-02-03T15:00:34.378Z,5.00
2023-02-03T15:03:09.675Z,5.00
2023-02-03T15:05:43.957Z,5.00
2023-02-03T15:08:35.675Z,5.00
2023-02-03T15:11:21.126Z,5.00
2023-02-03T15:13:47.822Z,5.00
2023-02-03T15:16:18.770Z,5.00
2023-02-03T15:18:45.697Z,4.90
2023-02-03T15:21:20.247Z,4.90
2023-02-03T15:23:49.357Z,4.90
2023-02-03T15:26:21.279Z,4.90
2023-02-03T15:29:02.635Z,4.90
2023-02-03T15:31:29.397Z,5.00
2023-02-03T15:33:59.501Z,4.90
2023-02-03T15:36:45.702Z,5.00
2023-02-03T15:39:28.013Z,4.80
2023-02-03T15:41:56.769Z,4.90
2023-02-03T15:44:50.437Z,4.90
2023-02-03T15:47:29.573Z,4.90
2023-02-03T15:50:04.118Z,4.90
2023-02-03T15:52:34.766Z,4.90
2023-02-03T15:55:28.952Z,4.90
2023-02-03T15:57:55.890Z,4.80
2023-02-03T16:00:27.222Z,4.90
2023-02-03T16:02:56.014Z,4.80
2023-02-03T16:05:30.005Z,4.90
2023-02-03T16:07:56.955Z,4.90
2023-02-03T16:10:29.797Z,4.90
2023-02-03T16:13:24.219Z,4.90
2023-02-03T16:16:17.303Z,4.80
2023-02-03T16:19:03.853Z,4.80
2023-02-03T16:21:51.442Z,4.80
2023-02-03T16:24:33.315Z,4.80
2023-02-03T16:27:21.655Z,4.80
2023-02-03T16:30:06.825Z,4.80
2023-02-03T16:32:52.412Z,4.80
2023-02-03T16:35:37.964Z,4.80
2023-02-03T16:38:36.714Z,4.80
2023-02-03T16:41:33.151Z,4.80
2023-02-03T16:44:20.943Z,4.80
2023-02-03T16:47:06.538Z,4.80
2023-02-03T16:49:52.268Z,4.90
2023-02-03T16:52:19.388Z,4.90
2023-02-03T16:54:46.383Z,4.90
2023-02-03T16:57:13.439Z,4.90
2023-02-03T16:59:40.180Z,4.80
2023-02-03T17:02:07.167Z,5.00
2023-02-03T17:04:34.446Z,4.90
2023-02-03T17:07:02.864Z,4.90
2023-02-03T17:09:32.194Z,4.90
2023-02-03T17:11:58.893Z,4.90
2023-02-03T17:14:27.113Z,4.90
2023-02-03T17:16:54.231Z,5.00
2023-02-03T17:19:20.970Z,5.00
2023-02-03T17:21:47.936Z,4.90
2023-02-03T17:24:15.043Z,4.90
2023-02-03T17:26:42.315Z,4.90
2023-02-03T17:29:14.345Z,4.90
2023-02-03T17:31:41.104Z,5.00
2023-02-03T17:34:07.838Z,5.00
2023-02-03T17:36:34.549Z,4.90
2023-02-03T17:55:34.483Z,4.90
2023-02-03T17:58:04.294Z,5.10
2023-02-03T18:00:31.562Z,5.00
2023-02-03T18:02:58.452Z,5.00
2023-02-03T18:05:29.258Z,4.90
2023-02-03T18:07:56.756Z,4.90
2023-02-03T18:10:23.476Z,4.90
2023-02-03T18:12:50.361Z,4.80
2023-02-03T18:15:17.494Z,4.80
2023-02-03T18:17:44.573Z,4.80
2023-02-03T18:20:12.189Z,4.70
2023-02-03T18:22:39.309Z,4.70
2023-02-03T18:25:06.588Z,4.70
2023-02-03T18:27:33.320Z,4.70
2023-02-03T18:30:00.190Z,4.60
2023-02-03T18:32:27.100Z,4.60
2023-02-03T18:34:53.961Z,4.60
2023-02-03T18:37:20.640Z,4.60
2023-02-03T18:39:47.674Z,4.60
2023-02-03T18:42:14.741Z,4.50
2023-02-03T18:44:42.293Z,4.40
2023-02-03T18:47:09.362Z,4.40
2023-02-03T18:49:36.750Z,4.40
2023-02-03T18:52:04.531Z,4.20
2023-02-03T18:54:31.382Z,4.30
2023-02-03T18:56:58.918Z,4.30
2023-02-03T18:59:26.534Z,4.30
2023-02-03T19:01:53.489Z,4.30
2023-02-03T19:04:20.753Z,4.30
2023-02-03T19:06:47.728Z,4.40
2023-02-03T19:09:19.337Z,4.40
2023-02-03T19:11:46.149Z,4.40
2023-02-03T19:14:14.216Z,4.40
2023-02-03T19:16:41.291Z,4.40
2023-02-03T19:19:08.240Z,4.40
2023-02-03T19:21:35.265Z,4.40
2023-02-03T19:24:02.366Z,4.30
2023-02-03T19:26:29.171Z,4.40
2023-02-03T19:28:56.132Z,4.40
2023-02-03T19:31:23.383Z,4.40
2023-02-03T19:33:50.568Z,4.40
2023-02-03T19:36:17.308Z,4.40
2023-02-03T19:38:44.096Z,4.40
2023-02-03T19:41:11.937Z,4.40
2023-02-03T19:43:40.115Z,4.30
2023-02-03T19:46:08.274Z,4.40
2023-02-03T19:48:35.599Z,4.40
2023-02-03T19:51:02.529Z,4.40
2023-02-03T19:53:29.412Z,4.40
2023-02-03T19:55:56.133Z,4.40
2023-02-03T19:58:24.268Z,4.50
2023-02-03T20:00:51.365Z,4.40
2023-02-03T20:03:19.600Z,4.40
2023-02-03T20:05:46.710Z,4.40
2023-02-03T20:08:14.834Z,4.40
2023-02-03T20:10:44.457Z,4.30
2023-02-03T20:13:14.926Z,4.20
2023-02-03T20:15:42.462Z,4.20
2023-02-03T20:18:10.819Z,4.20
2023-02-03T20:20:37.689Z,4.10
2023-02-03T20:23:04.579Z,4.10
2023-02-03T20:25:31.392Z,4.10
2023-02-03T20:28:01.916Z,4.10
2023-02-03T20:30:29.090Z,4.00
2023-02-03T20:32:56.314Z,4.00
2023-02-03T20:35:23.886Z,3.90
2023-02-03T20:37:50.937Z,4.00
2023-02-03T20:40:19.181Z,4.00
2023-02-03T20:42:47.304Z,4.00
2023-02-03T20:45:16.231Z,3.90
2023-02-03T20:47:43.874Z,3.80
2023-02-03T20:50:17.246Z,3.80
2023-02-03T20:52:45.750Z,3.80
2023-02-03T20:55:14.278Z,3.80
2023-02-03T20:57:41.817Z,3.80
2023-02-03T21:00:15.760Z,3.90
2023-02-03T21:03:02.438Z,3.70
2023-02-03T21:05:34.136Z,3.70
2023-02-03T21:08:00.904Z,3.70
2023-02-03T21:10:28.348Z,3.70
2023-02-03T21:12:56.454Z,3.80
2023-02-03T21:15:32.150Z,3.60
2023-02-03T21:17:58.843Z,3.60
2023-02-03T21:20:33.336Z,3.60
2023-02-03T21:23:00.446Z,3.60
2023-02-03T21:25:31.577Z,3.60
2023-02-03T21:27:59.375Z,3.50
2023-02-03T21:30:34.437Z,3.50
2023-02-03T21:33:15.589Z,3.50
2023-02-03T21:35:42.363Z,3.50
2023-02-03T21:38:26.152Z,3.60
2023-02-03T21:40:52.933Z,3.50
2023-02-03T21:43:22.709Z,3.50
2023-02-03T21:45:50.241Z,3.50
2023-02-03T21:48:24.568Z,3.50
2023-02-03T21:50:52.754Z,3.40
2023-02-03T21:53:35.191Z,3.40
2023-02-03T21:56:20.640Z,3.30
2023-02-03T21:58:50.623Z,3.30
2023-02-03T22:01:18.759Z,3.20
2023-02-03T22:03:53.820Z,3.30
2023-02-03T22:06:27.164Z,3.30
2023-02-03T22:08:56.590Z,3.30
2023-02-03T22:11:26.974Z,3.20
2023-02-03T22:13:54.124Z,3.20
2023-02-03T22:16:21.494Z,3.20
2023-02-03T22:18:49.134Z,3.20
2023-02-03T22:21:16.708Z,3.20
2023-02-03T22:23:44.131Z,3.20
2023-02-03T22:26:12.432Z,3.30
2023-02-03T22:28:40.102Z,3.30
2023-02-03T22:31:08.231Z,3.20
2023-02-03T22:33:36.088Z,3.30
2023-02-03T22:36:03.888Z,3.20
2023-02-03T22:38:31.031Z,3.30
2023-02-03T22:40:57.831Z,3.30
2023-02-03T22:43:25.538Z,3.30
2023-02-03T22:45:52.995Z,3.30
2023-02-03T22:48:20.554Z,3.30
2023-02-03T22:50:47.584Z,3.30
2023-02-03T22:53:14.704Z,3.30
2023-02-03T22:55:41.579Z,3.30
2023-02-03T22:58:08.629Z,3.30
2023-02-03T23:00:35.364Z,3.20
2023-02-03T23:03:02.152Z,3.20
2023-02-03T23:05:28.990Z,3.20
2023-02-03T23:07:55.871Z,3.30
2023-02-03T23:10:30.877Z,3.20
2023-02-03T23:13:00.556Z,3.20
2023-02-03T23:15:28.129Z,3.20
2023-02-03T23:17:55.337Z,3.20
2023-02-03T23:20:22.113Z,3.10
2023-02-03T23:22:49.530Z,3.10
2023-02-03T23:25:16.693Z,3.20
2023-02-03T23:27:43.501Z,3.00
2023-02-03T23:30:11.033Z,3.00
2023-02-03T23:32:37.961Z,3.00
2023-02-03T23:35:23.855Z,3.00
2023-02-03T23:37:50.832Z,2.90
2023-02-03T23:40:18.157Z,2.90
2023-02-03T23:42:44.903Z,2.90
2023-02-03T23:45:12.780Z,2.90
2023-02-03T23:47:41.620Z,2.90
2023-02-03T23:50:13.992Z,2.90
2023-02-03T23:52:40.821Z,2.90
2023-02-03T23:55:13.245Z,2.90
2023-02-03T23:57:42.591Z,2.80
